Time;durP1;ratioP1;P1;durP2;ratioP2;P2;SDS_P1;SDS_P2;PMS_P1;PMS_P2;Temp;Humidity;BMP_temperature;BMP_pressure;BME280_temperature;BME280_humidity;BME280_pressure;Samples;Min_cycle;Max_cycle;Signal;HPM_P1;HPM_P2
2022/09/28 00:01:54;;;;;;;9.27;7.70;;;;;;;28.50;74.73;100165.91;5078023;28;67065;-52
2022/09/28 00:04:26;;;;;;;7.68;6.93;;;;;;;28.27;76.32;100122.47;5079581;28;70770;-53
2022/09/28 00:06:59;;;;;;;7.40;6.80;;;;;;;28.56;76.19;100171.47;5080615;28;66951;-53
2022/09/28 00:09:32;;;;;;;13.43;7.60;;;;;;;28.60;76.25;100172.66;5078601;27;70723;-51
2022/09/28 00:12:05;;;;;;;55.55;41.25;;;;;;;28.47;76.90;100152.00;5077437;28;65875;-54
2022/09/28 00:14:39;;;;;;;147.57;105.70;;;;;;;28.61;77.49;100174.28;5069589;27;70800;-51
2022/09/28 00:17:11;;;;;;;171.57;122.18;;;;;;;28.63;76.98;100183.81;5080827;27;65961;-53
2022/09/28 00:19:44;;;;;;;145.25;102.90;;;;;;;28.64;77.68;100184.63;5068306;28;70098;-54
2022/09/28 00:22:17;;;;;;;133.80;94.30;;;;;;;28.56;76.99;100176.84;5061907;28;67182;-52
2022/09/28 00:24:50;;;;;;;121.18;83.78;;;;;;;28.70;77.01;100191.88;5064226;28;70670;-52
2022/09/28 00:27:23;;;;;;;116.32;78.15;;;;;;;28.74;76.50;100193.88;5061780;28;65995;-54
2022/09/28 00:29:55;;;;;;;96.97;64.90;;;;;;;28.74;76.58;100195.75;5067547;28;70085;-54
2022/09/28 00:32:28;;;;;;;86.03;57.58;;;;;;;28.72;77.23;100214.03;5068361;27;66980;-51
2022/09/28 00:35:01;;;;;;;78.63;50.20;;;;;;;28.77;76.18;100216.09;5068387;28;70750;-54
2022/09/28 00:37:34;;;;;;;65.63;42.25;;;;;;;28.76;77.21;100217.97;5079221;28;66402;-50
2022/09/28 00:40:07;;;;;;;58.83;38.90;;;;;;;28.83;76.60;100221.41;5080253;27;69814;-51
2022/09/28 00:42:41;;;;;;;47.70;32.70;;;;;;;28.83;76.83;100218.72;5077074;28;66417;-53
2022/09/28 00:45:14;;;;;;;40.22;28.75;;;;;;;28.94;73.27;100223.38;5063575;28;70547;-50
2022/09/28 00:47:52;;;;;;;32.38;24.75;;;;;;;28.92;72.38;100224.69;5068104;28;67071;-55
2022/09/28 00:50:33;;;;;;;34.40;21.88;;;;;;;29.01;71.77;100227.91;5074773;28;70721;-53
2022/09/28 00:53:18;;;;;;;25.73;19.75;;;;;;;28.59;71.42;100171.84;5069031;28;66398;-54
2022/09/28 00:56:02;;;;;;;24.80;17.13;;;;;;;28.52;70.81;100153.00;5072162;28;70042;-54
2022/09/28 00:58:40;;;;;;;21.95;15.73;;;;;;;29.05;70.78;100239.94;5076204;27;67061;-54
2022/09/28 01:01:13;;;;;;;21.83;15.52;;;;;;;29.12;70.77;100251.50;5076400;27;70723;-53
2022/09/28 01:03:47;;;;;;;15.65;13.18;;;;;;;28.29;70.60;100112.31;5076302;27;66364;-55
2022/09/28 01:06:23;;;;;;;15.00;12.55;;;;;;;28.93;70.83;100210.94;5072073;28;70193;-53
2022/09/28 01:08:59;;;;;;;12.00;11.05;;;;;;;29.19;70.40;100257.66;5052658;28;66190;-53
2022/09/28 01:11:34;;;;;;;11.10;10.10;;;;;;;29.06;70.07;100236.19;5078526;28;70466;-53
2022/09/28 01:14:11;;;;;;;11.57;10.20;;;;;;;28.74;69.85;100184.97;5079479;27;66293;-53
2022/09/28 01:17:06;;;;;;;13.10;10.40;;;;;;;29.17;69.96;100270.56;5075896;28;70262;-53
2022/09/28 01:20:11;;;;;;;10.32;9.07;;;;;;;29.15;70.32;100267.25;5075751;28;66141;-54
2022/09/28 01:22:58;;;;;;;9.20;8.50;;;;;;;28.72;69.79;100190.59;5078718;28;70667;-53
2022/09/28 01:26:09;;;;;;;8.68;7.95;;;;;;;29.14;70.21;100279.94;5069956;28;67044;-53
2022/09/28 01:28:43;;;;;;;9.95;7.15;;;;;;;28.83;69.89;100205.22;5054628;28;70808;-52
2022/09/28 01:31:17;;;;;;;7.28;6.63;;;;;;;29.31;69.44;100282.91;5077421;28;67005;-53
2022/09/28 01:34:03;;;;;;;7.80;7.20;;;;;;;29.32;69.13;100283.72;5068542;28;70039;-53
2022/09/28 01:36:47;;;;;;;7.88;6.72;;;;;;;29.04;69.53;100241.81;5069053;28;67010;-54
2022/09/28 01:39:41;;;;;;;9.98;6.93;;;;;;;29.21;69.79;100293.38;5067466;28;71194;-53
2022/09/28 01:42:23;;;;;;;6.93;6.20;;;;;;;29.35;68.94;100319.19;5063001;28;67384;-53
2022/09/28 01:45:03;;;;;;;6.40;6.00;;;;;;;29.35;69.32;100316.50;5072752;28;70626;-53
2022/09/28 01:47:40;;;;;;;6.63;5.07;;;;;;;28.93;69.34;100239.81;5091255;27;66818;-52
2022/09/28 01:50:17;;;;;;;6.28;5.68;;;;;;;29.29;69.24;100300.38;5076698;28;71045;-52
2022/09/28 01:53:20;;;;;;;8.32;7.57;;;;;;;29.27;69.45;100297.88;5073371;28;66268;-54
2022/09/28 01:55:59;;;;;;;9.52;6.07;;;;;;;29.37;68.69;100309.00;5073154;28;70329;-52
2022/09/28 01:58:54;;;;;;;8.23;5.93;;;;;;;29.33;69.25;100312.38;5060240;28;66983;-53
2022/09/28 02:01:35;;;;;;;7.63;5.40;;;;;;;28.98;68.43;100245.38;5079340;27;70680;-52
2022/09/28 02:04:13;;;;;;;7.45;4.47;;;;;;;28.94;68.27;100234.19;5078375;27;66476;-53
2022/09/28 02:07:00;;;;;;;11.93;4.70;;;;;;;29.04;68.77;100260.72;5063871;28;70736;-52
2022/09/28 02:09:39;;;;;;;4.78;4.30;;;;;;;29.27;68.06;100300.56;5071657;27;66208;-53
2022/09/28 02:12:19;;;;;;;7.00;4.82;;;;;;;29.44;68.28;100313.50;5064088;28;70185;-53
2022/09/28 02:14:58;;;;;;;6.97;4.88;;;;;;;29.48;68.36;100320.94;5073908;28;66996;-53
2022/09/28 02:17:32;;;;;;;6.03;4.50;;;;;;;29.47;68.55;100292.25;5071281;28;70386;-53
2022/09/28 02:20:07;;;;;;;4.85;3.78;;;;;;;29.58;68.06;100325.81;5070633;28;66189;-52
2022/09/28 02:22:45;;;;;;;4.63;3.55;;;;;;;29.62;67.70;100332.44;5071869;28;70319;-52
2022/09/28 02:25:25;;;;;;;6.47;3.53;;;;;;;29.62;68.23;100321.63;5067877;28;66987;-52
2022/09/28 02:28:06;;;;;;;3.53;3.22;;;;;;;29.63;67.78;100320.59;5069255;27;70730;-53
2022/09/28 02:30:42;;;;;;;6.43;3.45;;;;;;;29.50;67.97;100299.91;5071006;28;67285;-54
2022/09/28 02:33:51;;;;;;;6.18;3.80;;;;;;;29.51;67.56;100281.84;5071007;28;70283;-52
2022/09/28 02:36:25;;;;;;;8.57;3.58;;;;;;;29.38;67.90;100251.22;5063824;28;66460;-52
2022/09/28 02:39:01;;;;;;;4.03;3.63;;;;;;;29.72;67.47;100296.78;5077495;28;70028;-53
2022/09/28 02:41:52;;;;;;;7.38;4.00;;;;;;;29.08;67.59;100207.09;5072020;28;67270;-53
2022/09/28 02:44:34;;;;;;;3.63;3.38;;;;;;;29.76;67.02;100296.13;5056163;28;70958;-52
2022/09/28 02:47:31;;;;;;;3.60;3.30;;;;;;;29.29;67.46;100225.56;5077175;27;67009;-52
2022/09/28 02:50:07;;;;;;;6.72;3.67;;;;;;;29.79;67.23;100290.25;5072248;28;69971;-52
2022/09/28 02:53:14;;;;;;;4.68;3.38;;;;;;;29.66;67.02;100285.00;5078820;27;66162;-52
2022/09/28 02:55:57;;;;;;;3.78;3.47;;;;;;;29.82;67.36;100297.09;5076517;28;71436;-52
2022/09/28 02:58:53;;;;;;;3.85;3.53;;;;;;;29.84;66.63;100292.28;5083451;28;66055;-52
2022/09/28 03:01:52;;;;;;;5.63;3.40;;;;;;;29.71;67.30;100279.75;5074243;28;71155;-58
2022/09/28 03:04:42;;;;;;;6.00;3.00;;;;;;;28.98;66.38;100158.16;5070645;27;67390;-53
2022/09/28 03:07:40;;;;;;;3.83;3.53;;;;;;;29.79;66.65;100290.25;5075477;28;70710;-53
2022/09/28 03:10:27;;;;;;;3.50;3.20;;;;;;;29.92;66.87;100296.53;5073912;28;67498;-54
2022/09/28 03:13:00;;;;;;;6.28;4.28;;;;;;;29.99;66.65;100297.28;5077931;28;70472;-53
2022/09/28 03:15:35;;;;;;;6.40;3.50;;;;;;;29.95;66.62;100287.97;5084180;27;66379;-51
2022/09/28 03:18:08;;;;;;;8.70;3.50;;;;;;;30.03;66.56;100285.81;5075430;28;70318;-52
2022/09/28 03:20:40;;;;;;;3.08;2.78;;;;;;;30.06;66.51;100287.19;5080401;28;66696;-52
2022/09/28 03:23:13;;;;;;;3.33;2.97;;;;;;;29.99;66.34;100262.13;5076909;28;70476;-54
2022/09/28 03:26:04;;;;;;;6.25;3.15;;;;;;;30.12;66.13;100288.19;5062405;28;66282;-58
2022/09/28 03:28:37;;;;;;;3.20;2.90;;;;;;;30.14;66.08;100284.16;5063098;28;71016;-53
2022/09/28 03:31:13;;;;;;;3.03;2.72;;;;;;;30.12;66.42;100271.97;5063964;28;67040;-53
2022/09/28 03:33:46;;;;;;;4.15;3.30;;;;;;;30.21;66.29;100287.63;5073300;28;70655;-53
2022/09/28 03:36:18;;;;;;;5.57;3.13;;;;;;;30.14;66.18;100265.25;5077479;28;67186;-53
2022/09/28 03:38:55;;;;;;;6.40;2.58;;;;;;;30.27;66.26;100278.63;5043214;28;70348;-53
2022/09/28 03:41:28;;;;;;;6.05;2.60;;;;;;;30.15;66.15;100245.25;5054108;28;66933;-54
2022/09/28 03:44:01;;;;;;;5.32;2.40;;;;;;;30.32;65.97;100277.13;5094419;27;70549;-53
2022/09/28 03:46:35;;;;;;;3.40;2.53;;;;;;;30.24;65.92;100260.13;5096954;27;66306;-53
2022/09/28 03:49:10;;;;;;;3.22;2.58;;;;;;;30.31;65.42;100260.03;5074056;28;70877;-54
2022/09/28 03:51:43;;;;;;;2.78;2.53;;;;;;;30.40;65.47;100264.06;5080568;27;66853;-52
2022/09/28 03:54:15;;;;;;;2.40;2.20;;;;;;;30.38;65.87;100244.53;5080192;28;70820;-52
2022/09/28 03:56:49;;;;;;;2.42;2.22;;;;;;;30.45;65.76;100239.00;5080761;27;66518;-52
2022/09/28 03:59:21;;;;;;;5.20;2.45;;;;;;;30.49;65.61;100234.78;5077361;27;69917;-53
2022/09/28 04:01:54;;;;;;;4.28;2.47;;;;;;;30.50;65.82;100231.00;5081277;28;66954;-53
2022/09/28 04:04:28;;;;;;;5.20;2.15;;;;;;;30.54;65.60;100224.09;5076678;28;70870;-52
2022/09/28 04:07:00;;;;;;;3.35;1.90;;;;;;;30.54;65.50;100226.78;5070133;28;66407;-53
2022/09/28 04:09:32;;;;;;;3.53;2.60;;;;;;;30.58;65.96;100227.97;5081872;28;70876;-53
2022/09/28 04:12:06;;;;;;;3.97;2.33;;;;;;;30.62;65.67;100229.16;5073840;28;66909;-52
2022/09/28 04:14:38;;;;;;;6.22;2.70;;;;;;;30.62;65.35;100218.34;5062142;28;70102;-52
2022/09/28 04:17:11;;;;;;;3.63;2.38;;;;;;;30.60;65.81;100219.63;5062396;28;66203;-53
2022/09/28 04:19:43;;;;;;;3.33;2.40;;;;;;;30.65;65.32;100227.88;5074989;28;70950;-52
2022/09/28 04:22:39;;;;;;;3.88;2.20;;;;;;;30.64;65.36;100213.47;5064312;28;67118;-53
2022/09/28 04:25:12;;;;;;;3.88;2.42;;;;;;;30.59;65.59;100213.38;5080100;28;70562;-52
2022/09/28 04:30:36;;;;;;;2.88;2.35;;;;;;;30.68;65.53;100200.31;5062428;28;70382;-52
2022/09/28 04:33:08;;;;;;;6.57;2.13;;;;;;;30.73;65.24;100198.56;5064802;28;66072;-52
2022/09/28 04:35:41;;;;;;;5.43;2.38;;;;;;;30.64;65.70;100178.28;5064563;28;70704;-52
2022/09/28 04:38:13;;;;;;;2.38;2.15;;;;;;;30.77;65.45;100187.25;5070493;28;66177;-52
2022/09/28 04:41:06;;;;;;;2.60;2.00;;;;;;;30.62;65.73;100166.91;5076657;27;71165;-52
2022/09/28 04:43:38;;;;;;;5.28;2.30;;;;;;;30.79;65.36;100179.72;5078004;28;66853;-52
2022/09/28 04:46:12;;;;;;;2.63;2.30;;;;;;;30.75;65.35;100165.81;5064765;28;70957;-53
2022/09/28 04:48:54;;;;;;;3.05;2.20;;;;;;;30.78;65.81;100167.22;5079229;27;66487;-52
2022/09/28 04:51:46;;;;;;;;;;;;;;;30.47;66.24;100163.81;5068138;28;70992;-52
2022/09/28 04:54:18;;;;;;;6.10;2.38;;;;;;;30.80;65.73;100154.31;5074282;28;67074;-53
2022/09/28 04:56:52;;;;;;;3.17;2.00;;;;;;;30.77;65.22;100138.53;5072595;28;70606;-54
2022/09/28 04:59:24;;;;;;;2.30;2.08;;;;;;;30.90;65.39;100149.94;5075121;28;67028;-52
2022/09/28 05:01:58;;;;;;;4.43;2.42;;;;;;;30.94;64.81;100155.72;5073539;28;70592;-53
2022/09/28 05:04:48;;;;;;;2.97;2.05;;;;;;;30.96;65.17;100148.19;5074546;28;66513;-53
2022/09/28 05:07:40;;;;;;;2.83;2.13;;;;;;;30.95;64.93;100130.25;5070282;28;70877;-53
2022/09/28 05:10:13;;;;;;;7.40;2.17;;;;;;;30.99;65.31;100130.63;5060413;28;66555;-53
2022/09/28 05:12:46;;;;;;;2.25;1.98;;;;;;;30.93;65.00;100110.75;5064702;28;69598;-52
2022/09/28 05:15:19;;;;;;;9.48;1.85;;;;;;;30.96;64.82;100115.69;5071759;28;66804;-52
2022/09/28 05:17:52;;;;;;;3.42;2.60;;;;;;;31.02;65.07;100109.28;5061868;28;70701;-51
2022/09/28 05:20:42;;;;;;;6.22;2.13;;;;;;;31.02;65.17;100109.28;5064642;27;66206;-52
2022/09/28 05:23:14;;;;;;;3.58;1.85;;;;;;;31.05;65.01;100108.81;5064507;28;70746;-52
2022/09/28 05:25:47;;;;;;;4.47;2.10;;;;;;;31.06;64.81;100106.91;5071433;28;67126;-53
2022/09/28 05:28:30;;;;;;;2.67;2.13;;;;;;;30.52;64.97;100011.56;5060749;28;70873;-53
2022/09/28 05:31:20;;;;;;;3.80;2.03;;;;;;;31.04;64.64;100088.22;5062421;28;66684;-52
2022/09/28 05:34:06;;;;;;;3.03;1.90;;;;;;;31.07;64.44;100078.78;5061759;28;70808;-52
2022/09/28 05:36:41;;;;;;;2.75;1.90;;;;;;;31.04;64.86;100071.16;5060962;28;66535;-52
2022/09/28 05:39:14;;;;;;;2.33;1.90;;;;;;;31.12;64.62;100077.00;5063699;28;71360;-52
2022/09/28 05:41:58;;;;;;;2.38;1.80;;;;;;;31.13;65.05;100075.94;5107470;27;44347;-51
2022/09/28 05:44:32;;;;;;;3.58;2.00;;;;;;;30.84;64.51;100017.38;5110470;27;70769;-51
2022/09/28 05:47:05;;;;;;;2.97;1.95;;;;;;;31.16;65.05;100067.31;5113516;27;66702;-52
2022/09/28 05:49:37;;;;;;;3.75;2.33;;;;;;;31.20;64.53;100067.66;5097312;27;70135;-53
2022/09/28 05:52:10;;;;;;;4.70;2.00;;;;;;;31.23;64.76;100055.50;5096865;27;66349;-52
2022/09/28 05:54:43;;;;;;;3.30;1.98;;;;;;;31.19;64.84;100048.94;5085738;27;70782;-52
2022/09/28 05:57:15;;;;;;;5.88;1.80;;;;;;;31.25;64.34;100045.25;5099774;27;65858;-53
2022/09/28 05:59:47;;;;;;;4.00;2.05;;;;;;;31.28;64.59;100031.22;5098276;27;70896;-52
2022/09/28 06:02:20;;;;;;;5.00;2.13;;;;;;;31.29;64.74;100033.69;5097827;27;66304;-52
2022/09/28 06:04:52;;;;;;;4.65;2.17;;;;;;;31.31;64.75;100030.72;5108121;27;70865;-53
2022/09/28 06:07:25;;;;;;;3.67;2.13;;;;;;;31.32;64.51;100026.97;5113687;27;66804;-54
2022/09/28 06:09:58;;;;;;;4.57;2.30;;;;;;;31.32;64.68;100022.38;5112673;27;71422;-53
2022/09/28 06:12:42;;;;;;;4.05;2.20;;;;;;;31.21;65.01;99995.34;5103038;27;67028;-53
2022/09/28 06:15:17;;;;;;;3.47;2.42;;;;;;;31.34;64.46;100004.00;5110407;27;70990;-53
2022/09/28 06:17:59;;;;;;;4.15;2.88;;;;;;;30.75;64.29;99902.38;5108061;27;66657;-54
2022/09/28 06:20:42;;;;;;;4.97;2.08;;;;;;;31.38;64.56;99988.09;5082682;27;71401;-53
2022/09/28 06:23:19;;;;;;;3.00;2.20;;;;;;;31.39;64.85;99989.72;5097815;27;67106;-52
2022/09/28 06:25:51;;;;;;;5.32;2.10;;;;;;;31.41;64.50;99982.16;5088711;27;70909;-52
2022/09/28 06:28:25;;;;;;;3.83;2.20;;;;;;;31.42;64.36;99970.25;5085787;27;66690;-52
2022/09/28 06:31:01;;;;;;;2.90;2.20;;;;;;;31.45;64.40;99968.94;5081497;27;70388;-52
2022/09/28 06:33:37;;;;;;;4.18;2.10;;;;;;;31.45;64.39;99956.19;5076804;27;67019;-53
2022/09/28 06:36:09;;;;;;;3.95;2.60;;;;;;;31.47;64.26;99956.78;5086530;27;70763;-53
2022/09/28 06:38:42;;;;;;;3.83;2.25;;;;;;;31.51;64.23;99951.69;5090000;27;66664;-52
2022/09/28 06:41:16;;;;;;;3.05;2.03;;;;;;;31.52;64.53;99962.28;5095472;27;70084;-53
2022/09/28 06:43:49;;;;;;;3.42;2.05;;;;;;;31.41;64.28;99944.22;5085494;27;66816;-53
2022/09/28 06:46:39;;;;;;;3.95;2.13;;;;;;;31.55;64.26;99959.09;5094406;27;70622;-52
2022/09/28 06:49:12;;;;;;;4.80;2.22;;;;;;;31.58;64.10;99950.47;5094941;27;66595;-54
2022/09/28 06:52:07;;;;;;;4.35;2.30;;;;;;;31.54;64.21;99946.63;5087056;27;70749;-53
2022/09/28 06:55:09;;;;;;;5.20;1.97;;;;;;;31.58;64.19;99942.31;5056290;28;66963;-52
2022/09/28 06:57:44;;;;;;;6.47;2.33;;;;;;;31.65;64.13;99938.63;5080358;27;70960;-52
2022/09/28 07:00:18;;;;;;;3.20;2.00;;;;;;;31.68;63.88;99940.81;5076276;27;67043;-52
2022/09/28 07:02:50;;;;;;;2.55;2.08;;;;;;;31.70;63.54;99936.00;5082308;27;70772;-53
2022/09/28 07:05:46;;;;;;;5.38;2.10;;;;;;;30.83;63.61;99785.59;5067516;27;66557;-52
2022/09/28 07:08:44;;;;;;;5.10;1.90;;;;;;;31.57;63.68;99913.59;5075553;27;70611;-53
2022/09/28 07:12:00;;;;;;;2.33;1.88;;;;;;;31.71;63.99;99943.88;5079892;27;66525;-52
2022/09/28 07:14:41;;;;;;;;;;;;;;;31.41;64.32;99938.00;5069467;27;70831;-52
2022/09/28 07:17:18;;;;;;;4.95;2.00;;;;;;;31.68;63.70;99927.28;5071347;27;66508;-53
2022/09/28 07:19:57;;;;;;;2.83;1.92;;;;;;;31.76;63.77;99938.53;5070836;27;69978;-52
2022/09/28 07:22:43;;;;;;;2.90;1.75;;;;;;;31.80;63.81;99936.16;5076537;27;66123;-54
2022/09/28 07:25:22;;;;;;;5.85;2.00;;;;;;;31.81;63.66;99940.50;5078435;27;70230;-53
2022/09/28 07:28:24;;;;;;;3.38;2.08;;;;;;;31.85;63.75;99938.94;5073630;28;65771;-52
2022/09/28 07:31:15;;;;;;;3.53;1.65;;;;;;;31.87;63.45;99952.22;5068222;27;71220;-54
2022/09/28 07:33:55;;;;;;;4.63;1.80;;;;;;;31.65;63.41;99915.06;5071971;27;66994;-52
2022/09/28 07:36:34;;;;;;;4.35;2.08;;;;;;;31.88;63.55;99960.13;5080114;27;70806;-51
2022/09/28 07:39:26;;;;;;;2.45;2.20;;;;;;;31.90;63.22;99974.28;5069339;27;66383;-52
2022/09/28 07:41:59;;;;;;;2.33;2.13;;;;;;;31.87;63.30;99958.47;5072138;27;70785;-52
2022/09/28 07:44:35;;;;;;;2.60;2.40;;;;;;;31.90;63.59;99951.72;5090125;27;65806;-52
2022/09/28 07:47:08;;;;;;;2.85;2.00;;;;;;;31.92;63.70;99945.00;5079869;27;70219;-52
2022/09/28 07:50:00;;;;;;;3.25;2.22;;;;;;;31.92;63.52;99941.50;5069378;27;66335;-53
2022/09/28 07:52:50;;;;;;;7.20;2.53;;;;;;;31.95;63.37;99951.84;5072648;27;70577;-51
2022/09/28 07:55:57;;;;;;;6.72;2.30;;;;;;;31.95;63.67;99949.94;5077247;27;66208;-52
2022/09/28 07:58:41;;;;;;;2.90;2.42;;;;;;;31.99;63.56;99940.25;5079219;27;70842;-52
2022/09/28 08:01:43;;;;;;;3.80;2.67;;;;;;;32.00;63.63;99944.59;5044861;28;66902;-52
2022/09/28 08:04:17;;;;;;;7.03;2.75;;;;;;;32.04;63.41;99940.31;5073991;27;70860;-54
2022/09/28 08:06:49;;;;;;;4.25;2.60;;;;;;;31.77;63.37;99887.84;5096983;27;66207;-52
2022/09/28 08:09:22;;;;;;;4.82;2.30;;;;;;;32.09;63.50;99941.44;5100408;27;70567;-52
2022/09/28 08:12:13;;;;;;;2.35;2.10;;;;;;;32.10;63.40;99934.97;5098525;27;66509;-52
2022/09/28 08:15:14;;;;;;;4.93;2.40;;;;;;;31.93;63.28;99935.84;5068497;28;70611;-52
2022/09/28 08:17:57;;;;;;;5.33;2.27;;;;;;;32.09;63.48;99960.44;5074593;27;67037;-52
2022/09/28 08:23:24;;;;;;;2.83;2.63;;;;;;;32.13;63.17;99964.31;5073527;27;66219;-53
2022/09/28 08:25:56;;;;;;;3.75;2.33;;;;;;;32.13;63.38;99967.03;5061963;27;70589;-53
2022/09/28 08:28:29;;;;;;;4.22;2.80;;;;;;;32.14;63.36;99968.66;5070459;27;65487;-52
2022/09/28 08:31:20;;;;;;;6.20;3.20;;;;;;;32.13;63.38;99977.88;5073039;27;70828;-52
2022/09/28 08:34:11;;;;;;;5.35;2.53;;;;;;;32.11;63.41;99990.84;5065513;27;66901;-51
2022/09/28 08:37:01;;;;;;;4.90;2.90;;;;;;;32.14;63.72;100001.22;5065495;27;70283;-52
2022/09/28 08:39:52;;;;;;;4.72;2.95;;;;;;;32.07;63.49;100003.25;5067514;27;66014;-51
2022/09/28 08:42:57;;;;;;;4.40;3.17;;;;;;;32.11;63.58;100028.84;5070018;27;70398;-52
2022/09/28 08:45:49;;;;;;;5.68;3.13;;;;;;;32.12;63.21;100033.19;5072969;27;67168;-52
2022/09/28 08:49:06;;;;;;;4.82;3.30;;;;;;;31.98;63.77;100047.13;5070094;27;70301;-52
2022/09/28 08:52:29;;;;;;;4.47;2.72;;;;;;;32.07;63.71;100063.78;5066325;27;66900;-52
2022/09/28 08:55:33;;;;;;;;;;;;;;;31.76;64.44;100046.16;5066870;27;70476;-52
2022/09/28 08:58:17;;;;;;;5.00;2.60;;;;;;;32.04;63.93;100059.69;5067275;27;67305;-51
2022/09/28 09:00:53;;;;;;;2.78;2.38;;;;;;;31.53;64.02;99972.06;5078163;27;70656;-51
2022/09/28 09:03:35;;;;;;;4.18;2.28;;;;;;;32.00;64.13;100074.78;5048496;27;66823;-52
2022/09/28 09:06:55;;;;;;;5.13;2.42;;;;;;;31.93;64.28;100049.75;5060686;27;70861;-52
2022/09/28 09:10:27;;;;;;;5.68;2.97;;;;;;;31.81;65.09;100062.53;5067071;27;67234;-53
2022/09/28 09:13:19;;;;;;;3.17;2.35;;;;;;;31.91;64.61;100079.00;5006859;28;70650;-52
2022/09/28 09:16:25;;;;;;;2.40;1.92;;;;;;;31.80;64.73;100059.00;4983117;28;67314;-52
2022/09/28 09:19:22;;;;;;;2.47;2.23;;;;;;;31.89;64.63;100091.94;4991440;28;70146;-53
2022/09/28 09:22:44;;;;;;;4.30;2.40;;;;;;;31.80;64.99;100098.84;4997903;28;66682;-53
2022/09/28 09:25:27;;;;;;;2.30;2.10;;;;;;;31.85;64.87;100111.69;5070157;27;70742;-54
2022/09/28 09:28:10;;;;;;;3.00;1.92;;;;;;;31.56;66.03;100101.69;5059554;27;66343;-51
2022/09/28 09:31:07;;;;;;;2.78;2.10;;;;;;;31.26;67.18;100101.06;5074227;27;70100;-52
2022/09/28 09:33:58;;;;;;;3.80;1.95;;;;;;;31.05;68.96;100100.69;5068334;27;66354;-51
2022/09/28 09:37:06;;;;;;;5.03;1.83;;;;;;;30.92;69.70;100092.81;5071733;27;69682;-51
2022/09/28 09:40:41;;;;;;;2.42;2.13;;;;;;;30.75;70.52;100105.44;5020432;27;66971;-50
2022/09/28 09:44:10;;;;;;;1.92;1.75;;;;;;;30.64;71.28;100102.50;5067498;27;70771;-52
2022/09/28 09:47:10;;;;;;;2.10;1.90;;;;;;;30.67;71.81;100107.47;5068950;27;67376;-49
2022/09/28 09:50:13;;;;;;;3.45;2.08;;;;;;;30.64;72.02;100107.09;5068074;27;68963;-49
2022/09/28 09:52:56;;;;;;;2.17;1.92;;;;;;;30.58;72.53;100106.16;5063293;27;66046;-50
2022/09/28 09:55:44;;;;;;;2.88;1.92;;;;;;;30.50;72.69;100123.56;5060156;27;70743;-51
2022/09/28 09:58:30;;;;;;;2.78;1.83;;;;;;;30.51;72.91;100113.59;5068547;27;66496;-51
2022/09/28 10:01:17;;;;;;;3.90;2.13;;;;;;;29.97;72.97;100027.09;5063007;27;70754;-52
2022/09/28 10:04:19;;;;;;;2.80;2.47;;;;;;;30.31;73.18;100091.47;5067524;27;67713;-51
2022/09/28 10:07:00;;;;;;;6.28;2.35;;;;;;;30.02;73.56;100039.91;5064295;27;70318;-51
2022/09/28 10:09:48;;;;;;;2.40;2.20;;;;;;;30.39;73.18;100129.81;5075221;27;66598;-50
2022/09/28 10:12:47;;;;;;;3.53;2.55;;;;;;;30.40;73.63;100117.13;5065217;27;70691;-51
2022/09/28 10:15:29;;;;;;;2.70;1.98;;;;;;;29.89;73.76;100040.13;5065077;27;64797;-52
2022/09/28 10:18:14;;;;;;;4.03;2.13;;;;;;;30.36;74.07;100118.63;5059348;27;70471;-53
2022/09/28 10:21:05;;;;;;;2.47;2.00;;;;;;;30.33;74.11;100121.81;5068159;27;67345;-52
2022/09/28 10:24:17;;;;;;;5.90;2.47;;;;;;;29.70;74.44;100032.16;5051493;27;70540;-52
2022/09/28 10:26:54;;;;;;;7.47;2.42;;;;;;;30.31;74.43;100140.16;5056701;28;66946;-51
2022/09/28 10:29:30;;;;;;;2.40;2.20;;;;;;;29.37;74.80;99989.41;5065669;27;70086;-52
2022/09/28 10:32:18;;;;;;;3.33;2.28;;;;;;;30.13;75.05;100127.53;5040117;28;66561;-52
2022/09/28 10:34:53;;;;;;;4.38;2.30;;;;;;;30.26;74.94;100139.00;5074542;27;70599;-49
2022/09/28 10:37:31;;;;;;;2.38;2.17;;;;;;;30.25;75.15;100136.50;5070848;27;68443;-49
2022/09/28 10:40:47;;;;;;;2.45;2.10;;;;;;;30.21;75.21;100138.03;5076460;27;70168;-54
2022/09/28 10:43:33;;;;;;;11.35;2.72;;;;;;;30.25;75.00;100137.31;5072206;27;66948;-45
2022/09/28 10:46:20;;;;;;;3.97;2.08;;;;;;;30.19;75.18;100132.00;5067792;27;70584;-50
2022/09/28 10:49:14;;;;;;;3.05;2.17;;;;;;;30.25;74.72;100147.34;5071003;27;67427;-47
2022/09/28 10:51:55;;;;;;;27.73;3.28;;;;;;;30.25;75.04;100145.44;5072800;27;70102;-49
2022/09/28 10:54:52;;;;;;;14.27;3.75;;;;;;;30.23;75.63;100155.69;5074137;27;66929;-51
2022/09/28 10:57:34;;;;;;;20.17;3.40;;;;;;;29.90;73.39;100079.66;5075968;27;71035;-51
2022/09/28 11:00:32;;;;;;;7.47;2.00;;;;;;;30.34;74.02;100158.63;5070850;27;66022;-47
2022/09/28 11:03:23;;;;;;;3.70;2.60;;;;;;;29.38;75.04;100018.88;5070640;27;71078;-50
2022/09/28 11:06:04;;;;;;;14.95;2.30;;;;;;;29.84;75.54;100100.34;5069279;27;66851;-51
2022/09/28 11:08:42;;;;;;;3.63;2.05;;;;;;;30.30;75.51;100171.81;5061391;27;70056;-50
2022/09/28 11:11:20;;;;;;;4.88;2.58;;;;;;;30.28;74.94;100185.59;5074943;27;66066;-50
2022/09/28 11:14:02;;;;;;;3.60;1.95;;;;;;;30.31;74.31;100183.44;5075034;27;70553;-52
2022/09/28 11:16:37;;;;;;;7.53;1.90;;;;;;;30.28;74.21;100185.59;5063779;27;66813;-50
2022/09/28 11:19:19;;;;;;;5.10;2.05;;;;;;;30.27;74.28;100189.31;5067825;27;70746;-52
2022/09/28 11:21:52;;;;;;;5.18;2.40;;;;;;;30.25;74.76;100201.44;5075556;27;66228;-52
2022/09/28 11:24:33;;;;;;;2.63;2.00;;;;;;;30.11;73.17;100162.09;5067885;27;70806;-53
2022/09/28 11:27:20;;;;;;;1.70;1.60;;;;;;;30.35;72.61;100203.59;5055596;28;66263;-51
2022/09/28 11:29:57;;;;;;;3.17;2.35;;;;;;;30.02;71.99;100127.28;5070494;27;70036;-51
2022/09/28 11:33:03;;;;;;;2.15;1.92;;;;;;;30.18;71.68;100152.00;5069579;27;67253;-52
2022/09/28 11:36:13;;;;;;;4.00;1.60;;;;;;;30.57;71.79;100215.50;5056055;27;70112;-52
2022/09/28 11:39:19;;;;;;;2.15;1.95;;;;;;;30.50;71.75;100214.78;5066234;27;66187;-51
2022/09/28 11:42:04;;;;;;;2.28;1.77;;;;;;;30.06;71.29;100138.44;5067011;27;70357;-54
2022/09/28 11:44:47;;;;;;;2.33;1.67;;;;;;;30.06;71.57;100133.03;5070015;27;66802;-53
2022/09/28 11:47:41;;;;;;;4.57;2.50;;;;;;;29.98;71.66;100136.94;5067712;27;70848;-52
2022/09/28 11:50:42;;;;;;;3.45;2.17;;;;;;;30.18;71.61;100163.66;5070469;27;66913;-53
2022/09/28 11:53:36;;;;;;;2.85;2.55;;;;;;;30.55;72.03;100233.03;5073890;27;70254;-53
2022/09/28 11:56:33;;;;;;;2.75;2.30;;;;;;;30.49;72.30;100230.19;5080065;27;67005;-52
2022/09/28 11:59:11;;;;;;;2.88;2.13;;;;;;;30.64;71.82;100248.69;5064445;27;72439;-55
2022/09/28 12:01:54;;;;;;;4.38;2.00;;;;;;;30.52;71.79;100239.72;5073548;27;66027;-53
2022/09/28 12:04:58;;;;;;;2.30;2.10;;;;;;;30.58;71.45;100244.19;5071641;27;70088;-53
2022/09/28 12:07:40;;;;;;;2.40;2.15;;;;;;;30.09;71.40;100175.88;5073231;27;67128;-49
2022/09/28 12:10:42;;;;;;;7.87;2.50;;;;;;;30.26;74.50;100258.03;5068751;27;70437;-50
2022/09/28 12:13:26;;;;;;;3.40;2.20;;;;;;;30.26;74.70;100263.44;5070104;27;66802;-49
2022/09/28 12:16:07;;;;;;;3.67;2.47;;;;;;;30.20;75.78;100275.16;5069330;27;70152;-48
2022/09/28 12:19:15;;;;;;;2.83;2.13;;;;;;;30.13;76.54;100260.06;5073232;27;66821;-50
2022/09/28 12:21:57;;;;;;;5.57;2.63;;;;;;;29.64;76.92;100216.84;5069858;27;70399;-50
2022/09/28 12:24:37;;;;;;;4.50;2.60;;;;;;;30.13;77.08;100296.06;5070181;27;66242;-47
2022/09/28 12:27:28;;;;;;;6.13;2.88;;;;;;;30.09;78.46;100288.63;5072823;27;70789;-47
2022/09/28 12:30:15;;;;;;;8.35;2.80;;;;;;;30.06;79.45;100296.16;5074375;27;67142;-45
2022/09/28 12:32:55;;;;;;;10.30;2.90;;;;;;;30.05;79.00;100321.53;5068545;27;70277;-47
2022/09/28 12:35:55;;;;;;;30.52;3.75;;;;;;;29.86;77.92;100310.97;5072748;27;66923;-44
2022/09/28 12:38:58;;;;;;;13.27;2.90;;;;;;;29.79;76.76;100311.88;5072066;27;69221;-49
2022/09/28 12:42:26;;;;;;;9.85;2.70;;;;;;;29.18;75.17;100239.81;5061162;27;66956;-43
2022/09/28 12:45:17;;;;;;;8.85;2.10;;;;;;;29.10;74.53;100243.63;5080819;27;70133;-47
2022/09/28 12:48:17;;;;;;;16.58;2.90;;;;;;;29.54;73.34;100330.03;5072913;27;67407;-44